Time;durP1;ratioP1;P1;durP2;ratioP2;P2;SDS_P1;SDS_P2;PMS_P1;PMS_P2;Temp;Humidity;BMP_temperature;BMP_pressure;BME280_temperature;BME280_humidity;BME280_pressure;Samples;Min_cycle;Max_cycle;Signal;HPM_P1;HPM_P2
2021/12/03 00:00:29;;;;;;;9.60;5.60;;;-0.80;99.90;-1.70;98463;;;;566844;250;24094;-84
2021/12/03 00:02:57;;;;;;;11.50;5.80;;;-0.90;99.90;-1.80;98466;;;;575572;247;24047;-83
2021/12/03 00:05:26;;;;;;;9.00;5.30;;;-0.90;99.90;-1.80;98471;;;;574968;250;24156;-85
2021/12/03 00:07:54;;;;;;;10.83;5.43;;;-0.90;99.90;-1.80;98467;;;;565104;250;24125;-85
2021/12/03 00:10:25;;;;;;;11.40;6.43;;;-0.90;99.90;-1.80;98463;;;;565039;250;24197;-84
2021/12/03 00:12:54;;;;;;;8.23;5.83;;;-0.90;99.90;-1.80;98467;;;;565077;250;24120;-84
2021/12/03 00:15:19;;;;;;;8.97;5.63;;;-0.90;99.90;-1.80;98466;;;;564191;250;24115;-83
2021/12/03 00:17:50;;;;;;;10.87;5.83;;;-0.90;99.90;-1.80;98475;;;;570621;250;24133;-83
2021/12/03 00:20:15;;;;;;;8.97;5.43;;;-1.00;99.90;-1.80;98472;;;;564688;250;24144;-82
2021/12/03 00:22:43;;;;;;;7.73;5.43;;;-1.00;99.90;-1.80;98482;;;;565137;250;24110;-83
2021/12/03 00:25:11;;;;;;;12.17;5.73;;;-1.00;99.90;-1.80;98477;;;;564932;250;24194;-83
2021/12/03 00:27:39;;;;;;;10.90;5.63;;;-1.00;99.90;-1.90;98483;;;;574172;250;24131;-75
2021/12/03 00:30:09;;;;;;;9.40;5.43;;;-1.00;99.90;-1.90;98478;;;;564616;250;24111;-79
2021/12/03 00:32:40;;;;;;;11.73;5.53;;;-1.00;99.90;-1.90;98491;;;;570779;250;24126;-83
2021/12/03 00:35:06;;;;;;;9.73;6.13;;;-1.00;99.90;-1.90;98482;;;;563079;254;24185;-83
2021/12/03 00:37:34;;;;;;;11.37;6.70;;;-1.10;99.90;-2.00;98492;;;;574344;248;24145;-80
2021/12/03 00:40:02;;;;;;;9.70;6.23;;;-1.10;99.90;-2.00;98506;;;;564723;250;24106;-80
2021/12/03 00:42:32;;;;;;;14.33;7.07;;;-1.10;99.90;-2.00;98501;;;;564722;250;24109;-84
2021/12/03 00:44:59;;;;;;;12.97;6.70;;;-1.10;99.90;-2.00;98493;;;;564751;250;24161;-84
2021/12/03 00:47:27;;;;;;;9.60;5.77;;;-1.10;99.90;-2.10;98503;;;;564932;250;24146;-83
2021/12/03 00:49:55;;;;;;;9.03;6.57;;;-1.20;99.90;-2.10;98504;;;;587912;240;24045;-82
2021/12/03 00:52:23;;;;;;;13.20;6.67;;;-1.20;99.90;-2.20;98502;;;;574225;246;24077;-83
2021/12/03 00:54:51;;;;;;;13.30;7.23;;;-1.20;99.90;-2.20;98516;;;;584465;242;24034;-83
2021/12/03 00:57:20;;;;;;;11.73;6.77;;;-1.30;99.90;-2.20;98519;;;;584401;242;24041;-83
2021/12/03 00:59:48;;;;;;;10.47;7.03;;;-1.30;99.90;-2.20;98521;;;;573578;247;24082;-82
2021/12/03 01:02:19;;;;;;;11.43;7.20;;;-1.40;99.90;-2.30;98524;;;;573305;246;24220;-77
2021/12/03 01:04:46;;;;;;;12.67;7.00;;;-1.40;99.90;-2.30;98523;;;;593169;241;24076;-77
2021/12/03 01:07:15;;;;;;;14.93;6.57;;;-1.40;99.90;-2.30;98526;;;;583494;242;24049;-79
2021/12/03 01:09:40;;;;;;;8.80;6.83;;;-1.40;99.90;-2.30;98531;;;;574782;247;24084;-77
2021/12/03 01:12:08;;;;;;;10.67;6.53;;;-1.40;99.90;-2.40;98538;;;;583474;242;24049;-77
2021/12/03 01:14:39;;;;;;;10.93;7.13;;;-1.50;99.90;-2.40;98543;;;;572402;247;24099;-77
2021/12/03 01:17:05;;;;;;;11.47;7.10;;;-1.50;99.90;-2.40;98524;;;;592476;242;24065;-77
2021/12/03 01:19:33;;;;;;;8.53;6.17;;;-1.50;99.90;-2.40;98522;;;;572386;247;24098;-78
2021/12/03 01:22:01;;;;;;;11.57;7.30;;;-1.50;99.90;-2.40;98534;;;;571145;246;24075;-77
2021/12/03 01:24:29;;;;;;;9.10;6.13;;;-1.50;99.90;-2.40;98528;;;;581589;242;24054;-76
2021/12/03 01:27:01;;;;;;;13.00;6.67;;;-1.50;99.90;-2.50;98538;;;;583138;242;24090;-75
2021/12/03 01:29:30;;;;;;;12.27;7.00;;;-1.50;99.90;-2.50;98544;;;;572406;247;24103;-77
2021/12/03 01:31:56;;;;;;;7.80;5.57;;;-1.60;99.90;-2.50;98534;;;;580789;242;24095;-78
2021/12/03 01:34:25;;;;;;;11.37;6.30;;;-1.60;99.90;-2.50;98545;;;;575450;246;24128;-78
2021/12/03 01:36:50;;;;;;;9.43;6.20;;;-1.60;99.90;-2.60;98552;;;;575235;246;24085;-78
2021/12/03 01:39:22;;;;;;;7.67;5.53;;;-1.60;99.90;-2.60;98549;;;;575646;246;24083;-76
2021/12/03 01:41:50;;;;;;;9.63;6.43;;;-1.70;99.90;-2.60;98544;;;;572628;244;24062;-77
2021/12/03 01:44:16;;;;;;;9.10;6.07;;;-1.70;99.90;-2.60;98547;;;;583786;246;24084;-77
2021/12/03 01:46:45;;;;;;;8.67;5.80;;;-1.70;99.90;-2.70;98544;;;;575497;246;24073;-77
2021/12/03 01:49:14;;;;;;;8.57;5.30;;;-1.70;99.90;-2.70;98552;;;;575359;246;24065;-77
2021/12/03 01:51:41;;;;;;;7.43;4.50;;;-1.80;99.90;-2.80;98551;;;;565658;247;35254;-77
2021/12/03 01:54:08;;;;;;;7.33;4.83;;;-1.80;99.90;-2.80;98559;;;;585823;242;24054;-77
2021/12/03 01:56:39;;;;;;;5.97;4.20;;;-1.80;99.90;-2.80;98558;;;;583117;242;24082;-76
2021/12/03 01:59:08;;;;;;;7.73;4.83;;;-1.90;99.90;-2.80;98556;;;;575450;246;24132;-75
2021/12/03 02:01:33;;;;;;;6.43;4.33;;;-1.90;99.90;-2.80;98569;;;;573715;245;24055;-76
2021/12/03 02:04:05;;;;;;;5.03;3.70;;;-1.90;99.90;-2.80;98563;;;;573757;245;24049;-76
2021/12/03 02:06:30;;;;;;;5.97;4.50;;;-1.90;99.90;-2.80;98572;;;;575501;244;24070;-76
2021/12/03 02:08:58;;;;;;;6.47;4.00;;;-1.90;99.90;-2.90;98559;;;;582475;244;24076;-75
2021/12/03 02:11:30;;;;;;;6.20;3.57;;;-2.00;99.90;-2.90;98561;;;;573283;246;25137;-77
2021/12/03 02:13:54;;;;;;;4.57;3.23;;;-2.00;99.90;-3.00;98574;;;;576469;245;24050;-77
2021/12/03 02:16:25;;;;;;;5.10;2.87;;;-2.00;99.90;-3.00;98561;;;;573378;245;24068;-78
2021/12/03 02:18:50;;;;;;;4.73;3.13;;;-2.00;99.90;-3.10;98571;;;;578141;246;24184;-76
2021/12/03 02:21:18;;;;;;;3.93;2.30;;;-2.10;99.90;-3.10;98575;;;;576063;246;24170;-77
2021/12/03 02:23:46;;;;;;;3.00;2.50;;;-2.10;99.90;-3.20;98572;;;;571206;246;24156;-77
2021/12/03 02:26:14;;;;;;;5.00;2.80;;;-2.20;99.90;-3.20;98571;;;;572650;246;24089;-78
2021/12/03 02:28:44;;;;;;;4.63;2.70;;;-2.20;99.90;-3.20;98562;;;;573107;246;24061;-76
2021/12/03 02:31:12;;;;;;;5.70;2.83;;;-2.20;99.90;-3.20;98574;;;;571487;246;24058;-78
2021/12/03 02:33:44;;;;;;;3.03;2.43;;;-2.20;99.90;-3.20;98576;;;;571669;246;24096;-76
2021/12/03 02:36:08;;;;;;;3.60;2.50;;;-2.20;99.90;-3.20;98567;;;;573097;244;24171;-77
2021/12/03 02:38:36;;;;;;;4.93;2.90;;;-2.30;99.90;-3.30;98575;;;;576728;246;24062;-75
2021/12/03 02:41:04;;;;;;;3.33;2.57;;;-2.30;99.90;-3.30;98582;;;;575776;246;24056;-76
2021/12/03 02:43:35;;;;;;;3.10;2.50;;;-2.30;99.90;-3.30;98582;;;;575412;244;24065;-77
2021/12/03 02:45:59;;;;;;;9.77;3.67;;;-2.40;99.90;-3.30;98574;;;;583268;242;24087;-77
2021/12/03 02:48:27;;;;;;;4.57;2.53;;;-2.40;99.90;-3.40;98590;;;;583527;242;24049;-77
2021/12/03 02:50:55;;;;;;;2.97;2.37;;;-2.40;99.90;-3.30;98589;;;;578015;244;24103;-76
2021/12/03 02:53:23;;;;;;;5.33;2.70;;;-2.40;99.90;-3.40;98588;;;;581995;244;24079;-77
2021/12/03 02:55:51;;;;;;;3.37;2.40;;;-2.40;99.90;-3.30;98601;;;;571278;245;24066;-75
2021/12/03 02:58:22;;;;;;;3.70;2.67;;;-2.40;99.90;-3.40;98599;;;;581318;247;24121;-77
2021/12/03 03:00:47;;;;;;;3.30;3.00;;;-2.40;99.90;-3.40;98588;;;;572103;247;24099;-77
2021/12/03 03:03:15;;;;;;;2.30;2.07;;;-2.40;99.90;-3.40;98597;;;;565546;250;24089;-78
2021/12/03 03:05:47;;;;;;;3.83;2.00;;;-2.40;99.90;-3.40;98593;;;;570389;252;25166;-78
2021/12/03 03:08:14;;;;;;;3.37;2.40;;;-2.40;99.90;-3.40;98591;;;;559744;252;24148;-76
2021/12/03 03:10:42;;;;;;;2.70;2.47;;;-2.40;99.90;-3.40;98591;;;;569968;248;24106;-76
2021/12/03 03:13:13;;;;;;;2.93;2.50;;;-2.40;99.90;-3.40;98584;;;;561006;252;24200;-76
2021/12/03 03:15:39;;;;;;;3.10;2.27;;;-2.40;99.90;-3.40;98580;;;;582313;246;24063;-77
2021/12/03 03:18:18;;;;;;;3.53;2.80;;;-2.40;99.90;-3.40;98588;;;;571180;251;24131;-78
2021/12/03 03:20:46;;;;;;;5.73;3.13;;;-2.40;99.90;-3.40;98583;;;;571110;247;25190;-76
2021/12/03 03:23:15;;;;;;;2.40;2.20;;;-2.40;99.90;-3.40;98578;;;;573332;247;24103;-79
2021/12/03 03:25:44;;;;;;;5.83;2.43;;;-2.40;99.90;-3.40;98579;;;;563233;252;24124;-84
2021/12/03 03:28:11;;;;;;;3.40;2.80;;;-2.40;99.90;-3.40;98590;;;;572472;249;24079;-81
2021/12/03 03:30:39;;;;;;;3.63;3.00;;;-2.40;99.90;-3.40;98581;;;;569556;245;24127;-79
2021/12/03 03:33:07;;;;;;;4.07;3.07;;;-2.40;99.90;-3.40;98580;;;;569661;251;24085;-79
2021/12/03 03:35:35;;;;;;;5.57;2.60;;;-2.30;99.90;-3.40;98587;;;;573169;247;24113;-79
2021/12/03 03:38:03;;;;;;;4.47;3.00;;;-2.30;99.90;-3.40;98582;;;;581579;247;24108;-79
2021/12/03 03:40:34;;;;;;;4.70;2.53;;;-2.30;99.90;-3.40;98583;;;;560346;252;24132;-82
2021/12/03 03:42:59;;;;;;;2.90;2.60;;;-2.40;99.90;-3.40;98584;;;;574057;248;24076;-81
2021/12/03 03:45:31;;;;;;;4.97;2.67;;;-2.40;99.90;-3.40;98576;;;;570855;248;24096;-77
2021/12/03 03:47:56;;;;;;;6.50;2.63;;;-2.40;99.90;-3.40;98565;;;;555450;253;24114;-82
2021/12/03 03:50:25;;;;;;;6.03;2.80;;;-2.40;99.90;-3.40;98575;;;;566764;253;24144;-80
2021/12/03 03:52:53;;;;;;;3.70;2.40;;;-2.40;99.90;-3.40;98577;;;;572462;251;24112;-79
2021/12/03 03:55:20;;;;;;;2.60;2.40;;;-2.40;99.90;-3.40;98578;;;;562450;251;24172;-79
2021/12/03 03:57:48;;;;;;;4.60;2.23;;;-2.40;99.90;-3.40;98570;;;;562454;251;24120;-81
2021/12/03 04:00:16;;;;;;;3.97;2.17;;;-2.40;99.90;-3.40;98569;;;;562436;251;24283;-80
2021/12/03 04:02:44;;;;;;;2.83;2.10;;;-2.40;99.90;-3.40;98569;;;;554594;255;24121;-78
2021/12/03 04:05:12;;;;;;;4.47;2.43;;;-2.40;99.90;-3.40;98572;;;;573178;250;24099;-84
2021/12/03 04:07:41;;;;;;;2.00;1.83;;;-2.40;99.90;-3.40;98568;;;;554815;255;24262;-78
2021/12/03 04:10:12;;;;;;;2.60;2.30;;;-2.40;99.90;-3.40;98558;;;;558925;253;24135;-76
2021/12/03 04:12:37;;;;;;;3.23;2.30;;;-2.40;99.90;-3.40;98555;;;;559023;253;24119;-79
2021/12/03 04:15:05;;;;;;;3.47;2.37;;;-2.40;99.90;-3.40;98555;;;;558984;253;24119;-81
2021/12/03 04:17:34;;;;;;;3.23;2.37;;;-2.30;99.90;-3.40;98555;;;;558448;253;24120;-83
2021/12/03 04:20:02;;;;;;;3.90;1.80;;;-2.30;99.90;-3.30;98561;;;;553972;253;24133;-80
2021/12/03 04:22:34;;;;;;;2.43;2.00;;;-2.30;99.90;-3.20;98558;;;;553894;253;24127;-77
2021/12/03 04:24:58;;;;;;;2.80;2.23;;;-2.20;99.90;-3.20;98547;;;;555451;253;24136;-80
2021/12/03 04:27:26;;;;;;;3.83;2.00;;;-2.10;99.90;-3.10;98550;;;;559824;253;24112;-79
2021/12/03 04:29:54;;;;;;;7.33;2.30;;;-2.00;99.90;-3.10;98555;;;;560434;253;24139;-79
2021/12/03 04:32:24;;;;;;;3.43;2.37;;;-2.00;99.90;-3.00;98542;;;;567617;252;24201;-81
2021/12/03 04:34:50;;;;;;;7.37;2.70;;;-1.90;99.90;-2.90;98540;;;;557538;253;24123;-80
2021/12/03 04:37:23;;;;;;;4.53;2.63;;;-1.80;99.90;-2.90;98530;;;;554728;253;24119;-78
2021/12/03 04:39:51;;;;;;;4.43;2.77;;;-1.80;99.90;-2.90;98543;;;;554440;253;24112;-83
2021/12/03 04:42:15;;;;;;;3.63;2.87;;;-1.70;99.90;-2.80;98540;;;;558906;253;24122;-81
2021/12/03 04:44:46;;;;;;;4.73;3.00;;;-1.70;99.90;-2.80;98535;;;;554439;253;24127;-78
2021/12/03 04:47:11;;;;;;;4.37;3.07;;;-1.70;99.90;-2.70;98530;;;;559092;253;24167;-81
2021/12/03 04:49:41;;;;;;;3.27;2.77;;;-1.60;99.90;-2.70;98534;;;;554605;253;24182;-80
2021/12/03 04:52:12;;;;;;;5.00;2.57;;;-1.60;99.90;-2.60;98536;;;;554718;253;24127;-83
2021/12/03 04:54:37;;;;;;;9.10;3.33;;;-1.50;99.90;-2.60;98542;;;;562569;253;24119;-81
2021/12/03 04:57:06;;;;;;;4.47;3.00;;;-1.50;99.90;-2.60;98539;;;;561671;248;24239;-80
2021/12/03 04:59:34;;;;;;;3.40;3.00;;;-1.50;99.90;-2.50;98547;;;;569421;248;24079;-80
2021/12/03 05:02:02;;;;;;;4.77;2.80;;;-1.40;99.90;-2.50;98545;;;;577837;247;24133;-82
2021/12/03 05:04:37;;;;;;;4.90;2.77;;;-1.40;99.90;-2.40;98543;;;;569060;248;24122;-79
2021/12/03 05:07:54;;;;;;;4.90;3.27;;;-1.30;99.90;-2.40;98550;;;;577278;248;24118;-78
2021/12/03 05:09:27;;;;;;;4.43;3.17;;;-1.30;99.90;-2.30;98539;;;;569667;248;24105;-79
2021/12/03 05:11:55;;;;;;;5.13;2.53;;;-1.20;99.90;-2.20;98541;;;;569328;248;24103;-80
2021/12/03 05:14:23;;;;;;;5.87;2.47;;;-1.10;99.90;-2.20;98543;;;;568971;248;24136;-79
2021/12/03 05:16:51;;;;;;;3.57;2.50;;;-1.10;99.90;-2.10;98547;;;;569104;248;24113;-83
2021/12/03 05:19:18;;;;;;;2.97;1.97;;;-1.00;99.90;-2.10;98544;;;;568894;248;24134;-79
2021/12/03 05:21:49;;;;;;;6.73;3.20;;;-1.00;99.90;-2.00;98539;;;;569118;248;24098;-81
2021/12/03 05:24:14;;;;;;;3.37;2.47;;;-1.00;99.90;-2.00;98551;;;;569345;248;24090;-79
2021/12/03 05:26:42;;;;;;;3.73;2.77;;;-0.90;99.90;-2.00;98552;;;;578155;248;24139;-77
2021/12/03 05:29:10;;;;;;;3.93;2.87;;;-0.90;99.90;-1.90;98544;;;;567132;248;24113;-77
2021/12/03 05:31:38;;;;;;;4.77;3.73;;;-0.80;99.90;-1.90;98552;;;;577731;248;24165;-78
2021/12/03 05:34:10;;;;;;;7.53;3.87;;;-0.80;99.90;-1.80;98557;;;;588475;244;24040;-76
2021/12/03 05:36:35;;;;;;;7.33;4.40;;;-0.70;99.90;-1.80;98550;;;;578357;247;24117;-76
2021/12/03 05:39:06;;;;;;;6.97;3.60;;;-0.70;99.90;-1.70;98547;;;;565539;250;24131;-83
2021/12/03 05:41:36;;;;;;;6.23;3.47;;;-0.60;99.90;-1.70;98562;;;;570699;247;24095;-83
2021/12/03 05:44:00;;;;;;;6.47;3.30;;;-0.60;99.90;-1.70;98552;;;;570356;251;24073;-82
2021/12/03 05:46:28;;;;;;;4.13;3.37;;;-0.50;99.90;-1.60;98553;;;;561765;252;25129;-80
2021/12/03 05:48:55;;;;;;;3.67;3.30;;;-0.50;99.90;-1.60;98538;;;;572310;247;24077;-82
2021/12/03 05:51:26;;;;;;;5.57;3.50;;;-0.50;99.90;-1.60;98560;;;;570274;247;24119;-80
2021/12/03 05:53:52;;;;;;;7.40;3.73;;;-0.50;99.90;-1.60;98552;;;;571919;246;24104;-83
2021/12/03 05:56:19;;;;;;;8.53;4.13;;;-0.50;99.90;-1.60;98558;;;;571601;247;24073;-83
2021/12/03 05:58:48;;;;;;;6.70;4.10;;;-0.50;99.90;-1.60;98552;;;;572583;247;24086;-80
2021/12/03 06:01:18;;;;;;;4.63;4.17;;;-0.50;99.90;-1.50;98559;;;;572689;247;24038;-84
2021/12/03 06:03:46;;;;;;;6.90;3.93;;;-0.40;99.90;-1.50;98553;;;;572355;246;24127;-82
2021/12/03 06:06:11;;;;;;;5.67;4.20;;;-0.40;99.90;-1.50;98555;;;;572284;246;24188;-81
2021/12/03 06:08:39;;;;;;;4.50;4.10;;;-0.40;99.90;-1.50;98559;;;;572250;247;24171;-84
2021/12/03 06:11:07;;;;;;;4.70;4.30;;;-0.40;99.90;-1.40;98552;;;;572163;247;24122;-81
2021/12/03 06:13:39;;;;;;;6.57;4.90;;;-0.40;99.90;-1.40;98548;;;;571182;247;24117;-78
2021/12/03 06:16:06;;;;;;;8.17;5.17;;;-0.30;99.90;-1.40;98554;;;;570938;247;24080;-81
2021/12/03 06:18:31;;;;;;;12.63;5.33;;;-0.30;99.90;-1.30;98562;;;;569126;247;24088;-78
2021/12/03 06:20:59;;;;;;;8.23;5.63;;;-0.20;99.90;-1.30;98555;;;;571483;247;24073;-78
2021/12/03 06:23:32;;;;;;;9.00;5.33;;;-0.20;99.90;-1.30;98549;;;;571511;247;24143;-78
2021/12/03 06:25:56;;;;;;;7.73;6.37;;;-0.20;99.90;-1.30;98552;;;;571667;247;24092;-77
2021/12/03 06:28:28;;;;;;;7.20;6.23;;;-0.20;99.90;-1.20;98546;;;;571878;247;24140;-78
2021/12/03 06:30:52;;;;;;;7.37;5.50;;;-0.10;99.90;-1.30;98545;;;;580060;247;24134;-82
2021/12/03 06:33:23;;;;;;;6.27;5.20;;;-0.20;99.90;-1.30;98542;;;;573869;247;25176;-86
2021/12/03 06:35:48;;;;;;;9.70;4.83;;;-0.20;99.90;-1.30;98529;;;;571374;246;24124;-85
2021/12/03 06:38:16;;;;;;;6.80;5.07;;;-0.20;99.90;-1.30;98535;;;;568949;247;24093;-84
2021/12/03 06:40:47;;;;;;;4.70;4.22;;;-0.20;99.90;-1.30;98531;;;;558799;250;35292;-85
2021/12/03 06:43:12;;;;;;;3.27;2.23;;;-0.20;99.90;-1.40;98534;;;;569848;247;24102;-85
2021/12/03 06:45:44;;;;;;;2.90;2.60;;;-0.30;99.90;-1.40;98524;;;;571867;247;24170;-86
2021/12/03 06:48:09;;;;;;;6.30;4.50;;;-0.30;99.90;-1.40;98512;;;;572725;246;24101;-86
2021/12/03 06:50:37;;;;;;;7.33;5.10;;;-0.30;99.90;-1.40;98523;;;;572217;247;24095;-84
2021/12/03 06:53:10;;;;;;;7.47;5.03;;;-0.30;99.90;-1.50;98526;;;;571895;247;24130;-84
2021/12/03 06:58:12;;;;;;;6.47;4.70;;;-0.40;99.90;-1.50;98534;;;;566353;250;24088;-85
2021/12/03 07:00:40;;;;;;;6.97;5.30;;;-0.40;99.90;-1.50;98541;;;;572063;247;24098;-85
2021/12/03 07:03:08;;;;;;;7.10;4.83;;;-0.40;99.90;-1.50;98547;;;;571817;247;24085;-85
2021/12/03 07:05:40;;;;;;;6.27;5.17;;;-0.40;99.90;-1.50;98541;;;;571484;247;24082;-84
2021/12/03 07:08:04;;;;;;;6.43;4.73;;;-0.40;99.90;-1.40;98551;;;;571106;247;24165;-81
2021/12/03 07:10:32;;;;;;;5.70;5.13;;;-0.40;99.90;-1.40;98546;;;;569772;247;24108;-79
2021/12/03 07:13:00;;;;;;;7.10;5.70;;;-0.40;99.90;-1.40;98527;;;;573590;247;24084;-83
2021/12/03 07:15:28;;;;;;;7.07;5.17;;;-0.30;99.90;-1.40;98534;;;;569675;247;24104;-83
2021/12/03 07:17:56;;;;;;;6.10;4.83;;;-0.30;99.90;-1.40;98543;;;;571393;247;24099;-84
2021/12/03 07:20:24;;;;;;;6.63;4.47;;;-0.30;99.90;-1.40;98530;;;;571504;247;24074;-85
2021/12/03 07:22:52;;;;;;;4.97;4.47;;;-0.30;99.90;-1.40;98531;;;;580085;247;24100;-82
2021/12/03 07:25:20;;;;;;;6.80;4.60;;;-0.30;99.90;-1.40;98525;;;;569816;247;24088;-81
2021/12/03 07:27:48;;;;;;;4.63;4.23;;;-0.30;99.90;-1.40;98531;;;;569852;247;24077;-78
2021/12/03 07:30:17;;;;;;;8.57;4.87;;;-0.30;99.90;-1.40;98538;;;;571588;247;24115;-79
2021/12/03 07:32:48;;;;;;;7.03;5.10;;;-0.30;99.90;-1.40;98537;;;;569369;247;24109;-82
2021/12/03 07:35:13;;;;;;;9.80;5.60;;;-0.30;99.90;-1.30;98530;;;;571624;247;24088;-81
2021/12/03 07:37:43;;;;;;;5.90;4.83;;;-0.30;99.90;-1.30;98541;;;;564110;250;24139;-80
2021/12/03 07:40:09;;;;;;;6.80;4.63;;;-0.30;99.90;-1.30;98549;;;;571214;248;24115;-81
2021/12/03 07:42:37;;;;;;;7.27;4.77;;;-0.20;99.90;-1.30;98534;;;;561244;252;25116;-77
2021/12/03 07:45:06;;;;;;;3.50;2.92;;;-0.20;99.90;-1.20;98541;;;;566884;247;35428;-80
2021/12/03 07:47:36;;;;;;;2.53;2.00;;;-0.20;99.90;-1.20;98542;;;;571814;247;24234;-79
2021/12/03 07:50:01;;;;;;;3.80;3.50;;;-0.10;99.90;-1.10;98529;;;;571385;247;24083;-83
2021/12/03 07:52:29;;;;;;;7.13;4.37;;;-0.10;99.90;-1.10;98544;;;;580844;246;24145;-82
2021/12/03 07:54:57;;;;;;;5.63;4.33;;;0.00;99.90;-1.10;98548;;;;580535;247;24124;-78
2021/12/03 07:57:25;;;;;;;7.67;4.77;;;-0.10;99.90;-1.10;98545;;;;580318;245;24102;-80
2021/12/03 07:59:53;;;;;;;5.30;4.30;;;0.00;99.90;-1.10;98558;;;;572458;247;25114;-82
2021/12/03 08:02:24;;;;;;;6.90;5.03;;;0.00;99.90;-1.00;98550;;;;581388;247;24061;-85
2021/12/03 08:04:50;;;;;;;6.20;4.43;;;0.10;99.90;-1.00;98552;;;;570409;251;24138;-84
2021/12/03 08:07:20;;;;;;;4.73;4.27;;;0.10;99.90;-0.90;98565;;;;575499;249;24077;-83
2021/12/03 08:09:45;;;;;;;5.13;4.17;;;0.10;99.90;-0.90;98566;;;;575899;247;24102;-83
2021/12/03 08:12:13;;;;;;;4.40;3.10;;;0.20;99.90;-0.80;98569;;;;567291;247;35284;-82
2021/12/03 08:14:41;;;;;;;3.10;1.93;;;0.20;99.90;-0.80;98568;;;;571861;247;24074;-84
2021/12/03 08:17:09;;;;;;;1.63;1.53;;;0.30;99.90;-0.80;98580;;;;580408;247;24095;-82
2021/12/03 08:19:37;;;;;;;3.67;3.37;;;0.30;99.90;-0.80;98586;;;;580362;245;24108;-80
2021/12/03 08:22:05;;;;;;;6.20;4.37;;;0.30;99.90;-0.70;98591;;;;580226;247;24067;-84
2021/12/03 08:24:33;;;;;;;5.17;4.47;;;0.30;99.90;-0.70;98586;;;;580182;247;24173;-82
2021/12/03 08:27:01;;;;;;;6.57;4.43;;;0.40;99.90;-0.70;98585;;;;571888;247;24112;-80
2021/12/03 08:29:32;;;;;;;7.33;4.93;;;0.40;99.90;-0.70;98584;;;;571902;247;24112;-84
2021/12/03 08:31:57;;;;;;;5.70;4.57;;;0.40;99.90;-0.70;98590;;;;580486;247;24103;-86
2021/12/03 08:34:24;;;;;;;6.07;4.40;;;0.40;99.90;-0.70;98589;;;;569898;252;24076;-87
2021/12/03 08:36:52;;;;;;;5.10;4.33;;;0.40;99.90;-0.60;98594;;;;569808;252;24108;-86
2021/12/03 08:39:21;;;;;;;4.80;4.37;;;0.40;99.90;-0.60;98604;;;;559542;251;24072;-86
2021/12/03 08:41:48;;;;;;;7.83;4.43;;;0.50;99.90;-0.60;98604;;;;570099;252;24087;-82
2021/12/03 08:44:16;;;;;;;4.80;4.40;;;0.50;99.90;-0.60;98607;;;;570264;252;24097;-87
2021/12/03 08:46:46;;;;;;;5.47;4.67;;;0.50;99.90;-0.50;98615;;;;570102;252;24068;-81
2021/12/03 08:49:17;;;;;;;7.80;4.43;;;0.50;99.90;-0.60;98615;;;;569578;252;24084;-81
2021/12/03 08:57:00;;;;;;;5.90;4.20;;;0.50;99.90;-0.50;98621;;;;569118;247;24112;-78
2021/12/03 08:59:26;;;;;;;5.33;4.13;;;0.50;99.90;-0.50;98624;;;;569698;247;24116;-80
2021/12/03 09:01:53;;;;;;;7.80;5.00;;;0.60;99.90;-0.40;98630;;;;580450;247;24079;-85
2021/12/03 09:04:21;;;;;;;5.67;4.13;;;0.60;99.90;-0.40;98617;;;;571761;247;24089;-82
2021/12/03 09:06:49;;;;;;;7.37;4.57;;;0.60;99.90;-0.30;98624;;;;569985;247;24102;-83
2021/12/03 09:09:17;;;;;;;7.33;4.60;;;0.70;99.90;-0.20;98613;;;;580463;247;24094;-80
2021/12/03 09:11:45;;;;;;;5.07;4.37;;;0.70;99.90;-0.20;98625;;;;560754;252;24077;-82
2021/12/03 09:14:19;;;;;;;8.40;5.33;;;0.80;99.90;-0.10;98631;;;;570678;251;24126;-85
2021/12/03 09:16:44;;;;;;;9.63;5.03;;;0.90;99.90;-0.10;98637;;;;570826;251;24086;-85
2021/12/03 09:19:17;;;;;;;8.10;5.00;;;0.90;99.90;-0.10;98631;;;;572124;247;24174;-86
2021/12/03 09:21:38;;;;;;;11.97;5.00;;;0.90;99.90;-0.10;98629;;;;571281;247;24084;-84
2021/12/03 09:24:10;;;;;;;6.83;4.60;;;0.90;99.90;-0.10;98623;;;;581080;245;24138;-83
2021/12/03 09:26:38;;;;;;;4.70;4.13;;;0.90;99.90;-0.20;98619;;;;580529;247;24164;-81
2021/12/03 09:29:07;;;;;;;4.80;4.30;;;0.90;99.90;-0.30;98609;;;;580705;247;24091;-82
2021/12/03 09:31:30;;;;;;;4.37;3.97;;;0.80;99.90;-0.30;98633;;;;571521;247;25137;-82
2021/12/03 09:33:58;;;;;;;5.30;4.63;;;0.80;99.90;-0.30;98637;;;;582305;245;24061;-81
2021/12/03 09:36:26;;;;;;;5.83;4.33;;;0.80;99.90;-0.20;98638;;;;582345;247;24088;-80
2021/12/03 09:38:54;;;;;;;8.07;4.33;;;0.90;99.90;-0.10;98634;;;;565493;248;24085;-80
2021/12/03 09:41:23;;;;;;;5.60;4.40;;;0.90;99.90;-0.10;98640;;;;581188;247;24090;-80
2021/12/03 09:43:51;;;;;;;4.93;3.80;;;0.90;99.90;0.00;98647;;;;570300;248;24104;-82
2021/12/03 09:46:23;;;;;;;4.43;3.40;;;0.90;99.90;0.10;98645;;;;589222;244;24106;-82
2021/12/03 09:51:22;;;;;;;7.07;3.47;;;1.10;99.90;0.20;98646;;;;566992;247;24112;-82
2021/12/03 09:56:24;;;;;;;5.37;3.33;;;1.20;99.90;0.10;98651;;;;569044;247;24089;-79
2021/12/03 09:59:31;;;;;;;5.53;4.00;;;1.20;99.90;0.30;98656;;;;581253;247;24089;-78
2021/12/03 10:01:47;;;;;;;5.43;3.53;;;1.30;99.90;0.40;98656;;;;579757;247;24082;-77
2021/12/03 10:04:28;;;;;;;4.77;3.90;;;1.60;99.90;0.50;98645;;;;581094;242;24090;-78
2021/12/03 10:12:35;;;;;;;3.90;2.73;;;1.60;99.90;0.40;98662;;;;575293;245;24139;-78
2021/12/03 10:15:02;;;;;;;4.70;2.33;;;1.60;99.90;0.50;98662;;;;576579;249;24102;-81
2021/12/03 10:17:42;;;;;;;4.23;3.10;;;1.70;99.90;0.70;98667;;;;574165;246;24145;-78
2021/12/03 10:34:11;;;;;;;3.87;2.67;;;3.10;99.90;1.40;98678;;;;564609;248;24085;-81
2021/12/03 10:47:23;;;;;;;4.97;2.80;;;2.90;99.90;1.50;98670;;;;577595;248;24126;-79
2021/12/03 10:52:35;;;;;;;2.63;2.27;;;2.90;99.90;1.50;98685;;;;566362;248;24099;-81
2021/12/03 10:55:28;;;;;;;3.30;2.40;;;2.80;99.90;1.40;98684;;;;564034;248;24273;-80
2021/12/03 10:57:54;;;;;;;3.07;2.10;;;2.80;99.90;1.30;98693;;;;575682;248;24196;-76
2021/12/03 11:00:32;;;;;;;2.40;2.20;;;2.70;99.90;1.20;98694;;;;567671;248;25123;-80
2021/12/03 11:05:48;;;;;;;3.70;1.87;;;2.50;99.90;1.00;98706;;;;570181;246;24120;-78
2021/12/03 11:08:08;;;;;;;3.70;2.40;;;2.30;99.90;0.90;98707;;;;580884;246;24168;-80
2021/12/03 11:17:16;;;;;;;6.57;3.60;;;2.20;99.90;1.00;98720;;;;574485;246;24115;-79
2021/12/03 11:54:31;;;;;;;5.07;2.87;;;2.70;99.90;1.70;98748;;;;566961;253;24187;-79
2021/12/03 12:14:24;;;;;;;3.70;3.00;;;2.50;99.90;1.20;98755;;;;566546;253;24135;-76
2021/12/03 12:16:13;;;;;;;2.90;2.60;;;2.40;99.90;1.20;98755;;;;555198;253;24152;-76
2021/12/03 12:18:35;;;;;;;3.83;2.10;;;2.40;99.90;1.30;98760;;;;559521;252;24164;-77
2021/12/03 13:27:31;;;;;;;6.47;3.30;;;2.70;99.90;1.50;98833;;;;567111;250;24081;-78
2021/12/03 13:36:00;;;;;;;5.13;3.57;;;2.50;99.90;1.10;98850;;;;575447;248;24130;-80
2021/12/03 13:56:09;;;;;;;6.33;4.13;;;1.90;99.90;0.70;98851;;;;559509;248;24103;-81
2021/12/03 13:59:49;;;;;;;3.63;3.30;;;1.70;99.90;0.60;98860;;;;578731;247;24107;-79
2021/12/03 14:11:10;;;;;;;10.20;5.37;;;1.40;99.90;0.20;98866;;;;567032;248;24146;-78
2021/12/03 14:19:32;;;;;;;6.43;5.27;;;1.10;99.90;-0.10;98873;;;;566773;248;24140;-78
2021/12/03 14:37:55;;;;;;;8.80;5.30;;;0.60;99.90;-0.50;98891;;;;566625;248;24152;-75
2021/12/03 14:40:32;;;;;;;6.30;5.70;;;0.60;99.90;-0.60;98885;;;;565501;248;24128;-75
2021/12/03 14:42:55;;;;;;;8.60;4.57;;;0.50;99.90;-0.60;98888;;;;560368;248;35441;-79
2021/12/03 14:48:33;;;;;;;6.73;4.77;;;0.50;99.90;-0.60;98890;;;;577119;248;24123;-76
2021/12/03 14:56:11;;;;;;;7.50;5.10;;;0.60;99.90;-0.50;98895;;;;577424;248;25229;-77
2021/12/03 15:01:16;;;;;;;6.77;5.37;;;0.70;99.90;-0.30;98907;;;;566581;248;24110;-81
2021/12/03 15:14:59;;;;;;;6.10;5.30;;;1.20;99.90;0.10;98920;;;;567068;248;24134;-78
2021/12/03 15:25:02;;;;;;;6.90;4.80;;;1.40;99.90;0.30;98936;;;;577517;248;24112;-80
2021/12/03 15:27:44;;;;;;;6.10;5.07;;;1.40;99.90;0.40;98932;;;;568822;248;24137;-81
2021/12/03 15:33:02;;;;;;;7.87;5.07;;;1.50;99.90;0.40;98941;;;;571199;247;24153;-80
2021/12/03 15:38:08;;;;;;;5.30;4.80;;;1.50;99.90;0.40;98946;;;;580261;247;24081;-82
2021/12/03 16:04:52;;;;;;;7.33;5.13;;;1.50;99.90;0.50;98946;;;;569183;247;24099;-78
2021/12/03 16:07:34;;;;;;;8.27;5.77;;;1.50;99.90;0.50;98956;;;;569127;247;24189;-77
2021/12/03 16:12:51;;;;;;;6.13;4.70;;;1.50;99.90;0.50;98954;;;;579627;247;24079;-78
2021/12/03 16:20:50;;;;;;;5.67;4.20;;;1.50;99.90;0.50;98960;;;;581077;245;24194;-77